Time;durP1;ratioP1;P1;durP2;ratioP2;P2;SDS_P1;SDS_P2;PMS_P1;PMS_P2;Temp;Humidity;BMP_temperature;BMP_pressure;BME280_temperature;BME280_humidity;BME280_pressure;Samples;Min_cycle;Max_cycle;Signal;HPM_P1;HPM_P2
2022/01/20 00:02:07;;;;;;;;;;;;;;;2.96;100.00;101246.78;5070970;28;19928;-75
2022/01/20 00:04:44;;;;;;;;;;;;;;;2.87;100.00;101245.53;5072008;28;19920;-75
2022/01/20 00:07:35;;;;;;;;;;;;;;;2.96;100.00;101244.19;5071366;28;19920;-75
2022/01/20 00:26:12;;;;;;;;;;;;;;;2.98;100.00;101252.78;5066351;28;19928;-75
2022/01/20 00:28:48;;;;;;;;;;;;;;;2.95;100.00;101245.09;5033391;28;19925;-74
2022/01/20 00:31:39;;;;;;;;;;;;;;;2.98;100.00;101255.38;5050363;28;19991;-74
2022/01/20 00:35:04;;;;;;;;;;;;;;;3.07;100.00;101252.25;5048838;28;19924;-75
2022/01/20 00:37:16;;;;;;;;;;;;;;;3.09;100.00;101253.00;5056809;28;19920;-75
2022/01/20 00:39:41;;;;;;;;;;;;;;;3.00;100.00;101263.97;5069887;28;19920;-75
2022/01/20 00:42:08;;;;;;;;;;;;;;;3.04;100.00;101262.88;5068735;28;19924;-75
2022/01/20 00:44:33;;;;;;;;;;;;;;;3.01;100.00;101263.06;5070191;28;19974;-75
2022/01/20 00:46:58;;;;;;;;;;;;;;;3.03;100.00;101258.59;5069832;28;19920;-75
2022/01/20 00:49:23;;;;;;;;;;;;;;;2.98;100.00;101266.69;5070287;28;19924;-75
2022/01/20 00:51:49;;;;;;;;;;;;;;;3.01;100.00;101257.81;5070221;28;19975;-75
2022/01/20 00:54:14;;;;;;;;;;;;;;;3.04;100.00;101270.72;5069703;28;20021;-75
2022/01/20 00:56:39;;;;;;;;;;;;;;;3.04;100.00;101269.88;5070017;28;20305;-75
2022/01/20 00:59:04;;;;;;;;;;;;;;;3.01;100.00;101277.88;5069666;28;19927;-75
2022/01/20 01:01:30;;;;;;;;;;;;;;;2.96;100.00;101283.38;5069990;28;20392;-75
2022/01/20 01:03:55;;;;;;;;;;;;;;;2.97;100.00;101272.81;5070135;28;20289;-75
2022/01/20 01:07:15;;;;;;;;;;;;;;;2.94;100.00;101280.81;5055523;28;20357;-75
2022/01/20 01:09:08;;;;;;;;;;;;;;;3.05;100.00;101275.03;5041086;28;19925;-74
2022/01/20 01:11:35;;;;;;;;;;;;;;;3.01;100.00;101265.66;5055939;28;20263;-75
2022/01/20 01:14:02;;;;;;;;;;;;;;;3.02;100.00;101277.78;5056358;28;19928;-74
2022/01/20 01:16:40;;;;;;;;;;;;;;;2.96;100.00;101272.91;5050551;28;19932;-75
2022/01/20 01:22:03;;;;;;;;;;;;;;;2.93;100.00;101287.00;5038017;28;20278;-75
2022/01/20 01:24:29;;;;;;;;;;;;;;;3.08;100.00;101276.63;5036763;28;19925;-75
2022/01/20 01:26:54;;;;;;;;;;;;;;;3.18;100.00;101283.84;5049579;28;19927;-75
2022/01/20 01:29:39;;;;;;;;;;;;;;;3.17;100.00;101276.09;5048504;28;19921;-75
2022/01/20 01:32:10;;;;;;;;;;;;;;;3.20;100.00;101281.16;5049028;28;20377;-75
2022/01/20 01:34:39;;;;;;;;;;;;;;;3.18;100.00;101272.56;5049549;28;19978;-75
2022/01/20 01:37:07;;;;;;;;;;;;;;;3.14;100.00;101271.03;5049310;28;19921;-74
2022/01/20 01:39:33;;;;;;;;;;;;;;;3.11;100.00;101269.44;5031486;28;20396;-74
2022/01/20 01:41:59;;;;;;;;;;;;;;;3.09;100.00;101275.69;5049355;28;19991;-75
2022/01/20 01:44:28;;;;;;;;;;;;;;;3.18;100.00;101283.84;5048427;28;20377;-75
2022/01/20 01:46:55;;;;;;;;;;;;;;;3.15;100.00;101291.03;5049047;28;19964;-75
2022/01/20 01:49:21;;;;;;;;;;;;;;;3.22;100.00;101278.44;5040828;28;19924;-75
2022/01/20 01:51:46;;;;;;;;;;;;;;;3.26;100.00;101275.56;5049566;28;20299;-75
2022/01/20 01:54:13;;;;;;;;;;;;;;;3.30;100.00;101273.66;5031093;28;20001;-75
2022/01/20 01:56:38;;;;;;;;;;;;;;;3.26;100.00;101274.75;5030459;28;19932;-75
2022/01/20 01:59:05;;;;;;;;;;;;;;;3.23;100.00;101270.53;5049492;28;19921;-75
2022/01/20 02:01:33;;;;;;;;;;;;;;;3.24;100.00;101274.81;5049566;28;20278;-75
2022/01/20 02:04:08;;;;;;;;;;;;;;;3.31;99.91;101278.78;5048338;28;19924;-75
2022/01/20 02:09:43;;;;;;;;;;;;;;;3.34;99.68;101283.00;5063353;28;20004;-75
2022/01/20 02:20:13;;;;;;;;;;;;;;;3.29;99.95;101292.84;5071487;28;19928;-75
2022/01/20 02:22:38;;;;;;;;;;;;;;;3.32;99.82;101288.31;5053034;28;19936;-75
2022/01/20 02:25:04;;;;;;;;;;;;;;;3.31;99.44;101277.94;5069801;28;20296;-75
2022/01/20 02:27:29;;;;;;;;;;;;;;;3.32;99.70;101284.84;5068708;28;20289;-75
2022/01/20 02:29:54;;;;;;;;;;;;;;;3.25;99.95;101280.91;5065968;28;20194;-75
2022/01/20 02:32:19;;;;;;;;;;;;;;;3.28;99.82;101280.72;5068819;28;19994;-75
2022/01/20 02:34:44;;;;;;;;;;;;;;;3.29;99.68;101279.78;5068081;28;20273;-75
2022/01/20 02:37:13;;;;;;;;;;;;;;;3.30;99.51;101281.50;5051026;28;19920;-75
2022/01/20 02:44:56;;;;;;;;;;;;;;;3.28;99.41;101286.78;5066144;28;19935;-75
2022/01/20 02:47:23;;;;;;;;;;;;;;;3.17;100.00;101286.53;5070036;28;19963;-75
2022/01/20 02:49:48;;;;;;;;;;;;;;;3.21;99.97;101284.59;5071687;28;19925;-74
2022/01/20 02:52:13;;;;;;;;;;;;;;;3.19;100.00;101284.69;5072126;28;20388;-75
2022/01/20 02:54:39;;;;;;;;;;;;;;;3.19;99.91;101280.31;5072184;28;19927;-75
2022/01/20 02:57:05;;;;;;;;;;;;;;;3.23;99.69;101285.38;5071921;28;20427;-75
2022/01/20 02:59:30;;;;;;;;;;;;;;;3.22;100.00;101276.69;5072308;28;19928;-75
2022/01/20 03:01:56;;;;;;;;;;;;;;;3.22;99.77;101271.47;5054163;28;20377;-76
2022/01/20 03:04:25;;;;;;;;;;;;;;;3.24;99.84;101266.13;5049146;28;19932;-75
2022/01/20 03:06:50;;;;;;;;;;;;;;;3.29;99.25;101270.19;5054130;28;19928;-75
2022/01/20 03:09:15;;;;;;;;;;;;;;;3.28;99.08;101268.50;5072544;28;19932;-75
2022/01/20 03:11:40;;;;;;;;;;;;;;;3.22;99.46;101268.00;5072405;28;19925;-76
2022/01/20 03:14:05;;;;;;;;;;;;;;;3.20;99.36;101260.25;5072930;28;19920;-76
2022/01/20 03:16:30;;;;;;;;;;;;;;;3.08;99.77;101264.41;5054542;28;19960;-75
2022/01/20 03:18:56;;;;;;;;;;;;;;;3.07;99.96;101267.91;5054177;28;19967;-75
2022/01/20 03:21:21;;;;;;;;;;;;;;;3.11;99.44;101264.22;5071484;28;20130;-76
2022/01/20 03:23:47;;;;;;;;;;;;;;;3.09;99.81;101273.91;5070785;28;19928;-75
2022/01/20 03:26:12;;;;;;;;;;;;;;;3.15;99.63;101264.91;5071095;28;20209;-75
2022/01/20 03:28:37;;;;;;;;;;;;;;;3.19;99.25;101269.00;5072000;28;19935;-75
2022/01/20 03:31:02;;;;;;;;;;;;;;;3.14;99.45;101266.66;5070835;28;19924;-75
2022/01/20 03:33:28;;;;;;;;;;;;;;;3.19;99.17;101282.94;5071744;28;19963;-75
2022/01/20 03:35:53;;;;;;;;;;;;;;;3.18;99.58;101288.25;5072235;28;20190;-75
2022/01/20 03:38:19;;;;;;;;;;;;;;;3.14;99.52;101284.94;5071460;28;19928;-75
2022/01/20 03:40:44;;;;;;;;;;;;;;;3.01;100.00;101277.88;5071358;28;20210;-75
2022/01/20 03:43:10;;;;;;;;;;;;;;;3.07;100.00;101270.53;5071880;28;20377;-75
2022/01/20 03:45:35;;;;;;;;;;;;;;;3.14;100.00;101277.09;5071613;28;19973;-75
2022/01/20 03:48:06;;;;;;;;;;;;;;;3.19;99.69;101285.56;5071445;28;19983;-75
2022/01/20 03:53:16;;;;;;;;;;;;;;;3.22;99.40;101273.22;5059835;28;19990;-76
2022/01/20 03:55:41;;;;;;;;;;;;;;;3.15;99.91;101283.19;5070395;28;20288;-75
2022/01/20 03:58:07;;;;;;;;;;;;;;;3.16;99.78;101274.41;5070398;28;19947;-75
2022/01/20 04:00:32;;;;;;;;;;;;;;;3.15;99.76;101285.81;5071248;28;19927;-75
2022/01/20 04:02:58;;;;;;;;;;;;;;;3.16;99.71;101292.72;5071343;28;19928;-75
2022/01/20 04:05:23;;;;;;;;;;;;;;;3.16;99.69;101295.31;5070277;28;19931;-74
2022/01/20 04:07:48;;;;;;;;;;;;;;;3.08;100.00;101298.38;5070262;28;20047;-75
2022/01/20 04:10:13;;;;;;;;;;;;;;;3.15;99.89;101296.25;5069883;28;19982;-75
2022/01/20 04:12:38;;;;;;;;;;;;;;;3.17;99.42;101292.63;5071237;28;19975;-74
2022/01/20 04:15:08;;;;;;;;;;;;;;;3.16;99.28;101303.16;5070245;28;20296;-75
2022/01/20 04:17:34;;;;;;;;;;;;;;;3.14;99.46;101299.78;5052800;28;20436;-75
2022/01/20 04:19:59;;;;;;;;;;;;;;;3.16;99.32;101303.16;5071345;28;19994;-75
2022/01/20 04:22:26;;;;;;;;;;;;;;;3.15;99.04;101309.31;5069525;28;19932;-75
2022/01/20 04:24:52;;;;;;;;;;;;;;;3.18;99.07;101304.75;5070464;28;19927;-74
2022/01/20 04:27:17;;;;;;;;;;;;;;;3.14;99.23;101298.00;5071727;28;19932;-75
2022/01/20 04:29:42;;;;;;;;;;;;;;;3.14;99.14;101298.00;5071771;28;20368;-75
2022/01/20 04:32:07;;;;;;;;;;;;;;;3.11;99.18;101297.34;5077803;28;19925;-75
2022/01/20 04:34:33;;;;;;;;;;;;;;;3.10;99.06;101293.03;5060521;28;19920;-75
2022/01/20 04:37:00;;;;;;;;;;;;;;;3.03;99.14;101310.84;5053597;28;20410;-75
2022/01/20 04:39:28;;;;;;;;;;;;;;;3.01;99.39;101306.63;5070433;28;19965;-75
2022/01/20 04:41:54;;;;;;;;;;;;;;;2.98;99.40;101305.03;5069699;28;20316;-75
2022/01/20 04:58:20;;;;;;;;;;;;;;;2.68;99.37;101287.47;5068936;28;20011;-75
2022/01/20 05:00:45;;;;;;;;;;;;;;;2.64;99.43;101283.31;5070276;28;19999;-75
2022/01/20 05:03:10;;;;;;;;;;;;;;;2.68;99.42;101281.41;5069595;28;19924;-75
2022/01/20 05:05:36;;;;;;;;;;;;;;;2.61;99.83;101272.22;5069564;28;19928;-75
2022/01/20 05:08:01;;;;;;;;;;;;;;;2.65;99.77;101277.19;5069550;28;19920;-75
2022/01/20 05:10:30;;;;;;;;;;;;;;;2.65;99.57;101294.63;5069216;28;20381;-75
2022/01/20 05:15:21;;;;;;;;;;;;;;;2.58;99.79;101291.50;5069459;28;20015;-75
2022/01/20 05:17:47;;;;;;;;;;;;;;;2.54;100.00;101292.56;5068945;28;19981;-75
2022/01/20 05:20:12;;;;;;;;;;;;;;;2.44;100.00;101270.50;5050502;28;19920;-75
2022/01/20 05:22:38;;;;;;;;;;;;;;;2.46;100.00;101281.72;5068516;28;19924;-75
2022/01/20 05:25:03;;;;;;;;;;;;;;;2.48;100.00;101282.44;5068169;28;19948;-75
2022/01/20 05:27:29;;;;;;;;;;;;;;;2.38;100.00;101274.25;5068755;28;19927;-75
2022/01/20 05:29:55;;;;;;;;;;;;;;;2.38;99.96;101271.66;5069153;28;19935;-75
2022/01/20 05:32:20;;;;;;;;;;;;;;;2.37;100.00;101269.97;5067857;28;19921;-75
2022/01/20 05:34:46;;;;;;;;;;;;;;;2.33;100.00;101274.50;5068902;28;19943;-75
2022/01/20 05:37:11;;;;;;;;;;;;;;;2.15;100.00;101291.13;5051755;28;19917;-75
2022/01/20 05:39:36;;;;;;;;;;;;;;;2.14;100.00;101286.81;5052116;28;19921;-74
2022/01/20 05:42:01;;;;;;;;;;;;;;;2.17;100.00;101283.19;5068382;28;20011;-75
2022/01/20 05:44:27;;;;;;;;;;;;;;;2.06;100.00;101284.59;5068929;28;19932;-74
2022/01/20 05:46:53;;;;;;;;;;;;;;;2.06;100.00;101291.59;5070106;28;19958;-74
2022/01/20 05:49:21;;;;;;;;;;;;;;;1.95;100.00;101293.91;5069579;28;19931;-75
2022/01/20 05:51:47;;;;;;;;;;;;;;;1.85;100.00;101288.31;5068393;28;20238;-75
2022/01/20 05:54:12;;;;;;;;;;;;;;;1.89;100.00;101287.25;5070188;28;19924;-75
2022/01/20 05:56:38;;;;;;;;;;;;;;;2.00;100.00;101290.16;5052362;28;19969;-74
2022/01/20 05:59:03;;;;;;;;;;;;;;;2.07;100.00;101293.28;5051975;28;20125;-75
2022/01/20 06:01:29;;;;;;;;;;;;;;;2.09;100.00;101294.88;5071718;28;20261;-75
2022/01/20 06:03:54;;;;;;;;;;;;;;;2.04;100.00;101306.47;5064238;28;19925;-75
2022/01/20 06:06:21;;;;;;;;;;;;;;;2.07;100.00;101303.72;5039480;28;20339;-76
2022/01/20 06:08:47;;;;;;;;;;;;;;;2.09;100.00;101289.66;5054602;28;19920;-75
2022/01/20 06:11:12;;;;;;;;;;;;;;;2.17;100.00;101283.19;5071833;28;20353;-75
2022/01/20 06:13:38;;;;;;;;;;;;;;;2.18;100.00;101277.91;5053340;28;19928;-75
2022/01/20 06:16:03;;;;;;;;;;;;;;;2.17;100.00;101283.19;5070996;28;20000;-75
2022/01/20 06:18:28;;;;;;;;;;;;;;;2.23;100.00;101282.91;5053266;28;20506;-75
2022/01/20 06:20:54;;;;;;;;;;;;;;;2.29;100.00;101291.25;5072386;28;19975;-74
2022/01/20 06:23:22;;;;;;;;;;;;;;;2.20;100.00;101289.13;5075598;28;19928;-74
2022/01/20 06:25:47;;;;;;;;;;;;;;;2.29;100.00;101288.66;5072874;28;19924;-74
2022/01/20 06:28:13;;;;;;;;;;;;;;;2.31;100.00;101288.56;5071239;28;20393;-74
2022/01/20 06:30:38;;;;;;;;;;;;;;;2.20;100.00;101289.13;5067085;28;19920;-75
2022/01/20 06:33:04;;;;;;;;;;;;;;;2.27;100.00;101287.88;5067240;28;20305;-76
2022/01/20 06:35:31;;;;;;;;;;;;;;;2.38;100.00;101291.69;5071053;28;19973;-81
2022/01/20 06:37:56;;;;;;;;;;;;;;;2.24;100.00;101284.56;5075043;28;19927;-81
2022/01/20 06:40:22;;;;;;;;;;;;;;;2.15;100.00;101288.53;5076377;28;19975;-81
2022/01/20 06:42:48;;;;;;;;;;;;;;;2.25;100.00;101292.34;5077421;28;19960;-81
2022/01/20 06:45:15;;;;;;;;;;;;;;;2.36;100.00;101286.56;5059895;28;20014;-81
2022/01/20 06:47:40;;;;;;;;;;;;;;;2.40;100.00;101287.25;5059297;28;19916;-81
2022/01/20 06:50:06;;;;;;;;;;;;;;;2.23;100.00;101285.50;5076711;28;19920;-81
2022/01/20 06:52:32;;;;;;;;;;;;;;;2.24;100.00;101287.19;5077955;28;19948;-81
2022/01/20 06:54:58;;;;;;;;;;;;;;;2.15;100.00;101283.31;5059811;28;19936;-81
2022/01/20 06:57:23;;;;;;;;;;;;;;;2.11;100.00;101295.66;5076701;28;19970;-81
2022/01/20 06:59:49;;;;;;;;;;;;;;;2.08;100.00;101306.25;5078504;28;20293;-81
2022/01/20 07:02:14;;;;;;;;;;;;;;;2.01;100.00;101319.69;5060117;28;19924;-81
2022/01/20 07:04:39;;;;;;;;;;;;;;;2.02;100.00;101329.19;5078679;28;20276;-81
2022/01/20 07:07:05;;;;;;;;;;;;;;;2.11;100.00;101332.16;5077481;28;19978;-81
2022/01/20 07:09:31;;;;;;;;;;;;;;;2.18;100.00;101331.88;5077361;28;19927;-81
2022/01/20 07:11:57;;;;;;;;;;;;;;;2.18;100.00;101348.38;5077181;28;19943;-81
2022/01/20 07:14:22;;;;;;;;;;;;;;;2.29;100.00;101340.00;5059120;28;20082;-82
2022/01/20 07:16:48;;;;;;;;;;;;;;;2.32;100.00;101343.28;5077658;28;19931;-82
2022/01/20 07:19:13;;;;;;;;;;;;;;;2.40;100.00;101347.28;5058854;28;19916;-83
2022/01/20 07:21:38;;;;;;;;;;;;;;;2.36;100.00;101349.22;5077959;28;19924;-82
2022/01/20 07:24:04;;;;;;;;;;;;;;;2.38;100.00;101343.88;5059564;28;20407;-82
2022/01/20 07:26:29;;;;;;;;;;;;;;;2.40;99.99;101336.84;5078130;28;20373;-82
2022/01/20 07:28:54;;;;;;;;;;;;;;;2.38;99.89;101344.72;5079445;28;20387;-82
2022/01/20 07:31:22;;;;;;;;;;;;;;;2.36;99.58;101343.13;5078544;28;20003;-82
2022/01/20 07:33:48;;;;;;;;;;;;;;;2.31;99.90;101364.22;5061034;28;20376;-82
2022/01/20 07:36:13;;;;;;;;;;;;;;;2.32;99.97;101361.56;5079417;28;19931;-82
2022/01/20 07:38:38;;;;;;;;;;;;;;;2.32;99.86;101377.22;5062580;28;19928;-82
2022/01/20 07:41:04;;;;;;;;;;;;;;;2.35;100.00;101381.44;5081566;28;19969;-81
2022/01/20 07:43:29;;;;;;;;;;;;;;;2.43;99.76;101368.84;5079912;28;19930;-81
2022/01/20 07:45:55;;;;;;;;;;;;;;;2.38;100.00;101367.38;5079085;28;19920;-82
2022/01/20 07:48:20;;;;;;;;;;;;;;;2.39;100.00;101366.47;5063740;28;19916;-82
2022/01/20 07:50:45;;;;;;;;;;;;;;;2.42;99.98;101372.38;5078912;28;20184;-81
2022/01/20 07:53:10;;;;;;;;;;;;;;;2.36;100.00;101364.88;5059442;28;19920;-82
2022/01/20 07:55:36;;;;;;;;;;;;;;;2.37;100.00;101374.38;5084350;28;19921;-82
2022/01/20 07:58:01;;;;;;;;;;;;;;;2.43;99.42;101381.03;5089739;28;19909;-81
2022/01/20 08:00:26;;;;;;;;;;;;;;;2.31;99.75;101379.88;5084222;28;19955;-82
2022/01/20 08:02:52;;;;;;;;;;;;;;;2.33;100.00;101381.50;5058113;28;19921;-80
2022/01/20 08:05:17;;;;;;;;;;;;;;;2.26;100.00;101380.13;5077785;28;19947;-81
2022/01/20 08:07:42;;;;;;;;;;;;;;;2.10;100.00;101374.00;5060118;28;19917;-82
2022/01/20 08:10:08;;;;;;;;;;;;;;;1.99;100.00;101389.34;5076537;28;19925;-81
2022/01/20 08:12:33;;;;;;;;;;;;;;;2.03;100.00;101383.91;5076109;28;20445;-82
2022/01/20 08:14:59;;;;;;;;;;;;;;;2.15;100.00;101394.66;5075645;28;19928;-81
2022/01/20 08:17:25;;;;;;;;;;;;;;;1.97;100.00;101391.19;5076072;28;19916;-81
2022/01/20 08:19:51;;;;;;;;;;;;;;;2.06;100.00;101388.97;5075676;28;19917;-81
2022/01/20 08:22:16;;;;;;;;;;;;;;;2.11;100.00;101386.97;5075473;28;19921;-81
2022/01/20 08:24:42;;;;;;;;;;;;;;;2.16;100.00;101396.34;5058109;28;19920;-81
2022/01/20 08:27:10;;;;;;;;;;;;;;;2.28;100.00;101396.56;5075622;28;19920;-81
2022/01/20 08:29:35;;;;;;;;;;;;;;;2.39;100.00;101403.03;5075653;28;19923;-82
2022/01/20 08:32:00;;;;;;;;;;;;;;;2.53;100.00;101411.00;5075643;28;19925;-81
2022/01/20 08:34:26;;;;;;;;;;;;;;;2.60;99.86;101422.81;5057784;28;19948;-82
2022/01/20 08:36:55;;;;;;;;;;;;;;;2.67;99.51;101423.31;5057902;28;19942;-81
2022/01/20 08:42:03;;;;;;;;;;;;;;;2.60;99.57;101417.59;5076797;28;19924;-82
2022/01/20 08:44:28;;;;;;;;;;;;;;;2.52;100.00;101424.94;5066983;28;19924;-81
2022/01/20 08:46:54;;;;;;;;;;;;;;;2.60;100.00;101428.03;5058005;28;19932;-81
2022/01/20 08:49:20;;;;;;;;;;;;;;;2.71;99.76;101425.69;5087777;22;20391;-77
2022/01/20 08:51:45;;;;;;;;;;;;;;;2.83;99.93;101429.44;5061496;28;19927;-78
2022/01/20 08:54:11;;;;;;;;;;;;;;;2.80;99.50;101429.59;5067161;28;20358;-77
2022/01/20 08:56:36;;;;;;;;;;;;;;;2.80;99.60;101441.84;5066721;28;19955;-78
2022/01/20 08:59:02;;;;;;;;;;;;;;;2.93;99.18;101435.03;5057528;28;19991;-78
2022/01/20 09:01:28;;;;;;;;;;;;;;;2.93;98.66;101435.03;5049003;28;19921;-78
2022/01/20 09:03:54;;;;;;;;;;;;;;;2.96;98.34;101434.88;5052520;28;19925;-77
2022/01/20 09:06:19;;;;;;;;;;;;;;;2.95;98.24;101439.25;5055099;28;20188;-78
2022/01/20 09:08:44;;;;;;;;;;;;;;;2.98;98.10;101433.88;5056066;28;19916;-78
2022/01/20 09:11:19;;;;;;;;;;;;;;;2.96;97.99;101432.28;5055920;28;19917;-78
2022/01/20 09:16:28;;;;;;;;;;;;;;;3.10;98.09;101427.16;5049561;28;19932;-78
2022/01/20 09:18:54;;;;;;;;;;;;;;;3.16;97.88;101434.66;5061891;28;19917;-78
2022/01/20 09:21:22;;;;;;;;;;;;;;;3.17;97.22;101431.16;5055442;28;20019;-78
2022/01/20 09:23:48;;;;;;;;;;;;;;;3.27;97.55;101435.88;5056473;28;19931;-77
2022/01/20 09:26:13;;;;;;;;;;;;;;;3.31;97.60;101426.94;5033726;28;20003;-77
2022/01/20 09:28:39;;;;;;;;;;;;;;;3.33;97.34;101420.69;5054703;28;19925;-78
2022/01/20 09:31:04;;;;;;;;;;;;;;;3.39;97.43;101419.53;5055717;28;20259;-78
2022/01/20 09:33:29;;;;;;;;;;;;;;;3.40;97.08;101422.03;5057747;28;19925;-78
2022/01/20 09:35:56;;;;;;;;;;;;;;;3.39;96.78;101422.97;5054313;28;19956;-77
2022/01/20 09:38:21;;;;;;;;;;;;;;;3.45;96.00;101420.97;5053926;28;19921;-78
2022/01/20 09:40:46;;;;;;;;;;;;;;;3.43;96.34;101423.63;5055007;28;19942;-78
2022/01/20 09:43:14;;;;;;;;;;;;;;;3.25;99.11;101432.50;5027697;28;19955;-78
2022/01/20 09:45:39;;;;;;;;;;;;;;;3.39;98.27;101435.22;5061242;28;19928;-78
2022/01/20 09:48:06;;;;;;;;;;;;;;;3.46;97.83;101449.66;5053761;28;19917;-77
2022/01/20 09:50:31;;;;;;;;;;;;;;;3.46;99.29;101449.66;5061716;28;19924;-77
2022/01/20 09:53:01;;;;;;;;;;;;;;;3.52;98.44;101453.69;5063255;28;19981;-77
2022/01/20 09:55:27;;;;;;;;;;;;;;;3.47;98.85;101464.38;5052708;28;20195;-78
2022/01/20 09:57:52;;;;;;;;;;;;;;;3.28;98.71;101472.38;5052690;28;19924;-78
2022/01/20 10:00:18;;;;;;;;;;;;;;;3.25;97.88;101476.94;5056834;28;19921;-78
2022/01/20 10:02:58;;;;;;;;;;;;;;;3.25;95.92;101485.63;5056786;28;19928;-77
2022/01/20 10:05:24;;;;;;;;;;;;;;;3.36;96.34;101479.81;5056061;28;19964;-77
2022/01/20 10:07:49;;;;;;;;;;;;;;;3.40;95.18;101491.78;5039325;28;19939;-77
2022/01/20 10:10:14;;;;;;;;;;;;;;;3.47;93.93;101493.16;5037778;28;19916;-77
2022/01/20 10:12:40;;;;;;;;;;;;;;;3.54;93.84;101491.06;5056620;28;19917;-77
2022/01/20 10:15:08;;;;;;;;;;;;;;;3.47;93.10;101492.31;5056460;28;19952;-77
2022/01/20 10:17:33;;;;;;;;;;;;;;;3.48;91.82;101497.47;5030714;28;19970;-76
2022/01/20 10:20:01;;;;;;;;;;;;;;;3.52;92.96;101498.13;5056591;28;19921;-78
2022/01/20 10:22:27;;;;;;;;;;;;;;;3.64;91.89;101504.47;5052732;28;19923;-77
2022/01/20 10:25:03;;;;;;;;;;;;;;;3.66;90.99;101505.25;5036098;28;19924;-77
2022/01/20 10:27:31;;;;;;;;;;;;;;;3.74;90.02;101498.69;5028359;28;20031;-77
2022/01/20 10:30:00;;;;;;;;;;;;;;;3.80;92.30;101500.09;5035888;28;19921;-77
2022/01/20 10:32:26;;;;;;;;;;;;;;;3.83;92.68;101492.09;5028552;28;19917;-78
2022/01/20 10:35:02;;;;;;;;;;;;;;;3.87;90.72;101501.47;5012015;28;20311;-77
2022/01/20 10:37:27;;;;;;;;;;;;;;;3.87;91.65;101504.06;5034239;28;19917;-77
2022/01/20 10:40:02;;;;;;;;;;;;;;;3.94;92.04;101505.44;5008192;28;19959;-77
2022/01/20 10:42:34;;;;;;;;;;;;;;;4.00;88.94;101506.84;5039130;28;19966;-77
2022/01/20 10:44:59;;;;;;;;;;;;;;;3.91;88.44;101507.34;5057609;28;20388;-77
2022/01/20 10:47:25;;;;;;;;;;;;;;;3.85;88.13;101494.63;5058061;28;19917;-78
2022/01/20 10:49:50;;;;;;;;;;;;;;;3.90;87.60;101503.06;5058260;28;20241;-77
2022/01/20 10:52:17;;;;;;;;;;;;;;;3.93;88.32;101495.03;5050229;28;19925;-77
2022/01/20 10:54:44;;;;;;;;;;;;;;;3.95;88.29;101501.88;5050727;28;19917;-77
2022/01/20 10:57:11;;;;;;;;;;;;;;;4.02;87.06;101505.00;5058921;28;19939;-78
2022/01/20 10:59:50;;;;;;;;;;;;;;;4.01;86.70;101492.84;5059427;28;19920;-77
2022/01/20 11:02:16;;;;;;;;;;;;;;;4.04;88.47;101496.13;5058705;28;19986;-78
2022/01/20 11:04:41;;;;;;;;;;;;;;;3.93;86.53;101493.28;5060091;28;19921;-78
2022/01/20 11:07:09;;;;;;;;;;;;;;;4.04;87.16;101493.50;5059772;28;19923;-78
2022/01/20 11:09:38;;;;;;;;;;;;;;;4.22;87.50;101493.41;5059792;28;19916;-78
2022/01/20 11:12:04;;;;;;;;;;;;;;;4.04;84.50;101485.66;5041493;28;19931;-78
2022/01/20 11:14:31;;;;;;;;;;;;;;;4.12;84.91;101484.38;5051537;28;19944;-77
2022/01/20 11:16:58;;;;;;;;;;;;;;;4.11;86.88;101485.31;5065431;28;19921;-78
2022/01/20 11:19:23;;;;;;;;;;;;;;;4.08;83.74;101469.81;5065069;28;19928;-78
2022/01/20 11:21:49;;;;;;;;;;;;;;;4.15;84.40;101479.00;5058436;28;19917;-77
2022/01/20 11:24:17;;;;;;;;;;;;;;;4.26;86.04;101471.34;5055908;28;19941;-78
2022/01/20 11:26:56;;;;;;;;;;;;;;;4.36;84.67;101467.28;5055336;28;19916;-78
2022/01/20 11:29:22;;;;;;;;;;;;;;;4.20;85.07;101469.09;5053623;28;19917;-78
2022/01/20 11:31:48;;;;;;;;;;;;;;;4.13;81.17;101462.53;5055033;28;19917;-78
2022/01/20 11:34:18;;;;;;;;;;;;;;;4.34;82.11;101463.03;5050718;28;19917;-77
2022/01/20 11:36:44;;;;;;;;;;;;;;;4.27;82.28;101457.34;5054357;28;19917;-78
2022/01/20 11:39:09;;;;;;;;;;;;;;;4.42;82.28;101456.44;5064622;28;19924;-78
2022/01/20 11:41:35;;;;;;;;;;;;;;;4.61;83.10;101461.44;5030382;28;20371;-78
2022/01/20 11:44:08;;;;;;;;;;;;;;;4.81;82.47;101464.66;5054515;28;19928;-78
2022/01/20 11:46:38;;;;;;;;;;;;;;;5.00;81.02;101464.41;5043341;28;20356;-78
2022/01/20 11:49:09;;;;;;;;;;;;;;;4.94;79.27;101463.00;5017010;28;19928;-78
2022/01/20 11:51:53;;;;;;;;;;;;;;;5.08;78.58;101464.81;5016811;28;19921;-78
2022/01/20 11:54:24;;;;;;;;;;;;;;;4.99;77.51;101467.97;5037123;28;19924;-77
2022/01/20 11:56:50;;;;;;;;;;;;;;;4.78;78.07;101463.06;5046741;28;19967;-78
2022/01/20 11:59:15;;;;;;;;;;;;;;;4.56;77.67;101467.91;5036389;28;19939;-78
2022/01/20 12:01:45;;;;;;;;;;;;;;;4.36;77.87;101480.38;5048492;28;19917;-78
2022/01/20 12:04:10;;;;;;;;;;;;;;;4.26;79.72;101479.19;5029019;28;19921;-78
2022/01/20 12:06:42;;;;;;;;;;;;;;;4.28;79.22;101479.13;5027636;28;19928;-78
2022/01/20 12:09:07;;;;;;;;;;;;;;;4.20;79.83;101469.94;5033290;28;19924;-78
2022/01/20 12:11:36;;;;;;;;;;;;;;;4.23;80.16;101468.91;5032789;28;19921;-78
2022/01/20 12:14:02;;;;;;;;;;;;;;;4.14;80.83;101472.88;5017824;28;19918;-78
2022/01/20 12:16:27;;;;;;;;;;;;;;;4.04;81.16;101474.34;5036482;28;19960;-78
2022/01/20 12:18:54;;;;;;;;;;;;;;;3.88;82.22;101479.59;5046332;28;19921;-78
2022/01/20 12:21:19;;;;;;;;;;;;;;;3.85;82.18;101487.63;5035993;28;19917;-78
2022/01/20 12:23:45;;;;;;;;;;;;;;;4.02;82.10;101497.13;5018227;28;19929;-77
2022/01/20 12:26:10;;;;;;;;;;;;;;;3.96;79.00;101505.34;5041597;28;19996;-78
2022/01/20 12:28:36;;;;;;;;;;;;;;;3.79;75.25;101506.25;5033298;28;19972;-76
2022/01/20 12:31:02;;;;;;;;;;;;;;;3.72;74.70;101505.75;5015260;28;19978;-77
2022/01/20 12:33:31;;;;;;;;;;;;;;;3.75;75.63;101516.06;5033838;28;19928;-78
2022/01/20 12:36:02;;;;;;;;;;;;;;;3.69;72.35;101505.06;5038020;28;19921;-77
2022/01/20 12:38:28;;;;;;;;;;;;;;;3.72;71.84;101504.91;5031330;28;19927;-78
2022/01/20 12:41:10;;;;;;;;;;;;;;;3.69;71.85;101508.53;5058543;28;19978;-78
2022/01/20 12:43:40;;;;;;;;;;;;;;;3.78;70.38;101510.66;5047083;28;20266;-78
2022/01/20 12:46:06;;;;;;;;;;;;;;;3.99;68.43;101502.56;5055951;28;20381;-77
2022/01/20 12:48:32;;;;;;;;;;;;;;;3.80;71.48;101511.41;5053763;28;19924;-78
2022/01/20 12:50:59;;;;;;;;;;;;;;;3.83;71.12;101515.63;5040195;28;20476;-78
2022/01/20 12:53:58;;;;;;;;;;;;;;;3.79;70.22;101514.09;5055474;28;19921;-78
2022/01/20 12:56:30;;;;;;;;;;;;;;;3.90;71.27;101516.97;5034501;28;19944;-78
2022/01/20 12:58:55;;;;;;;;;;;;;;;3.87;70.70;101521.56;5056277;28;19920;-77
2022/01/20 13:01:21;;;;;;;;;;;;;;;3.91;71.50;101523.91;5055630;28;20023;-78
2022/01/20 13:03:47;;;;;;;;;;;;;;;3.88;71.12;101513.59;5038843;28;19934;-78
2022/01/20 13:06:22;;;;;;;;;;;;;;;3.94;71.06;101515.88;5054782;28;20002;-78
2022/01/20 13:09:03;;;;;;;;;;;;;;;3.97;69.83;101512.25;5049030;28;19928;-78
2022/01/20 13:11:30;;;;;;;;;;;;;;;3.95;69.49;101517.56;5053682;28;19928;-78
2022/01/20 13:13:58;;;;;;;;;;;;;;;3.89;69.84;101517.91;5057442;28;19916;-77
2022/01/20 13:16:23;;;;;;;;;;;;;;;3.88;69.79;101510.16;5040896;28;19920;-78
2022/01/20 13:18:59;;;;;;;;;;;;;;;3.88;70.36;101516.22;5042245;28;19928;-79
2022/01/20 13:21:35;;;;;;;;;;;;;;;3.91;71.25;101508.22;5052691;28;20428;-78
2022/01/20 13:24:02;;;;;;;;;;;;;;;3.93;71.38;101514.22;5044760;28;19928;-78
2022/01/20 13:26:27;;;;;;;;;;;;;;;3.93;71.20;101508.13;5056804;28;20343;-79
2022/01/20 13:28:56;;;;;;;;;;;;;;;3.90;70.88;101508.28;5029825;28;20003;-78
2022/01/20 13:31:22;;;;;;;;;;;;;;;3.97;71.80;101510.47;5058304;28;19942;-78
2022/01/20 13:33:47;;;;;;;;;;;;;;;4.02;71.93;101513.69;5058053;28;19924;-78
2022/01/20 13:36:12;;;;;;;;;;;;;;;4.07;73.50;101513.44;5055383;28;19917;-79
2022/01/20 13:38:46;;;;;;;;;;;;;;;4.03;73.28;101515.38;5054251;28;19917;-79
2022/01/20 13:41:13;;;;;;;;;;;;;;;4.09;71.99;101513.34;5055887;28;19921;-78
2022/01/20 13:46:43;;;;;;;;;;;;;;;3.96;73.06;101514.03;5041780;28;19943;-78